Main page
METAR-TAF:

METAR-TAF

Airports :

Treviso, Italy

Istrana Air Base

latitude: 45-41N, longitude: 012-06E, elevation: 45 m

Current weather observation

The report was made 50 minutes ago, at 19:55 UTC
Wind 3 kt from the East
Temperature 25°C
Humidity 74%
Pressure 1007 hPa
Visibility 10 km or more
no clouds below 1500 m and no cumulonimbus

METAR: LIPS 271955Z 08003KT CAVOK 25/20 Q1007 RMK BKN BKN120 VIS MIN 9999 WIND THR26 09003KT WIND THR08 09003KT BLU

Time: 22:45 (20:45 UTC)

Forecast

The report was made 45 minutes ago, at 20:00 UTC
Forecast valid from 27 at 21 UTC to 28 at 06 UTC
Wind 5 kt from the North/Northeast
Visibility 10 km or more
Few clouds at a height of 8000 ft
Temporary
from 28 at 00 UTC to 28 at 06 UTC
Visibility: 5000 m
Scattered clouds at a height of 2000 ft, Cumulonimbus.
Scattered clouds at a height of 5000 ft
rain showers

TAF: LIPS 272000Z 2721/2806 02005KT 9999 FEW080 TEMPO 2800/2806 5000 SHRA SCT020CB SCT050

Weather observations and forecasts of more than 4000 airports (METAR and TAF reports).

The available stations are represented by yellow and red dots on the map.

Hover mouse over dot to see the name of the station.

Then click to see weather observations and forecasts.

To change the map : click on the green buttons with a black cross to zoom in, on the green button with a dash to zoom out, or on the green arrows for adjacent maps.


METAR-TAF: